Grand Canyon, Arizona
Current Conditions -  °F | °C
As of 8:54 AM on Sunday 25 Jan 2015 (Local Time) from KGCN Reporting Station
Clear Clear  
Wind Chill: 40°   Ceiling: Unl
Heat Index: 45°   Visibility: 10mi
Dew Point: 22°   Wind: 9mph
Humidity: 40%   Direction: 40°NE
Pressure: 30.35"   Gusts: NA
Location:  36.05°N, 112.14°W
Report Text: KGCN 251554Z 04008KT 10SM CLR 07/M06 A3035 RMK AO2 SLP263 T00721056 $
Loading
Personal Weather Stations






























Interactive Weather Map New forecast layout! Learn more

10-Day Weather Forecast

Advertisements
Track Severe Weather on mobile